Time;durP1;ratioP1;P1;durP2;ratioP2;P2;SDS_P1;SDS_P2;PMS_P1;PMS_P2;Temp;Humidity;BMP_temperature;BMP_pressure;BME280_temperature;BME280_humidity;BME280_pressure;Samples;Min_cycle;Max_cycle;Signal;HPM_P1;HPM_P2
2022/07/22 00:00:21;;;;;;;9.10;6.60;;;;;;;24.69;63.68;99717.47;4824528;29;20062;-92
2022/07/22 00:02:46;;;;;;;9.32;6.93;;;;;;;24.64;63.80;99723.25;4824412;29;20654;-92
2022/07/22 00:05:12;;;;;;;8.23;6.13;;;;;;;24.59;64.02;99724.75;4824372;29;20038;-90
2022/07/22 00:07:38;;;;;;;7.43;6.72;;;;;;;24.51;64.40;99722.88;4824420;29;20042;-89
2022/07/22 00:10:07;;;;;;;7.05;6.20;;;;;;;24.43;64.66;99709.53;4833942;29;20034;-91
2022/07/22 00:12:32;;;;;;;8.02;6.43;;;;;;;24.53;64.34;99722.75;4852469;29;20041;-90
2022/07/22 00:14:58;;;;;;;6.55;5.95;;;;;;;24.48;64.68;99722.34;4846881;29;20117;-92
2022/07/22 00:17:23;;;;;;;9.75;6.55;;;;;;;24.42;64.52;99721.19;4847029;29;20033;-91
2022/07/22 00:19:48;;;;;;;7.07;6.25;;;;;;;24.45;64.64;99733.34;4846423;29;20454;-90
2022/07/22 00:22:14;;;;;;;9.07;6.55;;;;;;;24.42;64.80;99729.16;4862348;29;20037;-92
2022/07/22 00:24:39;;;;;;;12.30;7.10;;;;;;;24.32;64.43;99729.25;4846915;29;20030;-91
2022/07/22 00:27:04;;;;;;;8.60;6.50;;;;;;;24.32;65.06;99728.44;4853841;29;20025;-91
2022/07/22 00:29:30;;;;;;;6.95;5.95;;;;;;;24.33;64.81;99738.06;4846724;29;20032;-90
2022/07/22 00:31:55;;;;;;;9.07;6.68;;;;;;;24.33;64.76;99736.25;4846411;29;20386;-90
2022/07/22 00:34:21;;;;;;;9.05;7.18;;;;;;;24.27;65.03;99723.56;4846606;29;20132;-92
2022/07/22 00:36:46;;;;;;;10.75;7.18;;;;;;;24.24;65.24;99710.56;4860153;29;20160;-91
2022/07/22 00:39:11;;;;;;;7.10;6.40;;;;;;;24.32;65.24;99725.75;4845458;29;20043;-92
2022/07/22 00:41:37;;;;;;;9.05;6.45;;;;;;;24.29;65.63;99718.91;4876477;29;20137;-91
2022/07/22 00:44:07;;;;;;;7.20;6.60;;;;;;;24.08;66.15;99690.00;4845336;29;20513;-91
2022/07/22 00:46:34;;;;;;;8.90;6.63;;;;;;;24.22;66.20;99714.38;4845686;29;20041;-92
2022/07/22 00:49:00;;;;;;;8.70;6.53;;;;;;;24.15;66.14;99715.00;4875962;29;20038;-92
2022/07/22 00:51:27;;;;;;;7.32;6.63;;;;;;;24.10;66.79;99703.16;4845029;29;20529;-92
2022/07/22 00:53:54;;;;;;;7.35;6.65;;;;;;;23.89;66.99;99687.56;4876360;29;20033;-92
2022/07/22 00:56:20;;;;;;;11.20;7.60;;;;;;;24.04;67.25;99723.25;4845482;29;20057;-92
2022/07/22 00:58:48;;;;;;;7.95;6.93;;;;;;;23.96;67.71;99730.34;4845055;29;20030;-91
2022/07/22 01:01:15;;;;;;;9.05;7.47;;;;;;;23.93;67.94;99741.28;4845152;29;20053;-90
2022/07/22 01:03:40;;;;;;;7.55;6.85;;;;;;;23.86;68.08;99743.75;4845265;29;20605;-91
2022/07/22 01:06:06;;;;;;;8.95;7.45;;;;;;;23.78;68.44;99739.19;4845009;29;20131;-91
2022/07/22 01:08:33;;;;;;;8.70;6.88;;;;;;;23.74;68.46;99742.31;4849366;29;20041;-92
2022/07/22 01:11:12;;;;;;;7.18;6.47;;;;;;;23.65;68.98;99730.78;4845987;29;20040;-92
2022/07/22 01:13:39;;;;;;;7.95;7.00;;;;;;;23.61;69.05;99732.03;4846143;29;20029;-92
2022/07/22 01:16:05;;;;;;;7.63;6.68;;;;;;;23.52;69.33;99728.47;4846015;29;20501;-91
2022/07/22 01:18:31;;;;;;;7.78;6.22;;;;;;;23.57;69.35;99742.13;4876980;29;20437;-92
2022/07/22 01:20:57;;;;;;;8.32;7.07;;;;;;;23.54;69.79;99744.25;4845858;29;20062;-92
2022/07/22 01:23:22;;;;;;;7.03;6.32;;;;;;;23.49;69.93;99739.41;4845935;29;20029;-92
2022/07/22 01:25:48;;;;;;;8.88;7.40;;;;;;;23.40;70.52;99742.97;4850517;29;20398;-92
2022/07/22 01:28:13;;;;;;;7.85;6.90;;;;;;;23.40;70.95;99754.44;4845949;29;20065;-92
2022/07/22 01:30:39;;;;;;;10.18;6.93;;;;;;;23.35;71.05;99748.75;4845942;29;20286;-91
2022/07/22 01:33:04;;;;;;;7.63;6.80;;;;;;;23.30;71.06;99751.03;4845520;29;20029;-93
2022/07/22 01:35:29;;;;;;;9.57;7.55;;;;;;;23.31;71.40;99768.66;4845670;29;20041;-92
2022/07/22 01:37:55;;;;;;;9.63;7.47;;;;;;;23.26;72.09;99768.25;4845496;29;20057;-92
2022/07/22 01:40:20;;;;;;;7.68;6.90;;;;;;;23.20;72.75;99776.81;4846004;29;20170;-92
2022/07/22 01:42:45;;;;;;;8.40;7.15;;;;;;;23.18;72.71;99777.97;4861388;29;20489;-91
2022/07/22 01:45:11;;;;;;;9.60;6.93;;;;;;;23.12;72.41;99764.28;4845377;29;20057;-92
2022/07/22 01:47:36;;;;;;;9.18;7.13;;;;;;;23.16;72.20;99754.19;4845479;29;20033;-91
2022/07/22 01:50:04;;;;;;;8.63;7.10;;;;;;;23.04;72.41;99729.66;4845367;29;20090;-91
2022/07/22 01:52:29;;;;;;;7.25;6.57;;;;;;;23.18;72.10;99767.34;4845431;29;20112;-92
2022/07/22 01:54:55;;;;;;;7.63;6.93;;;;;;;23.14;72.35;99769.47;4845510;29;20033;-92
2022/07/22 01:57:20;;;;;;;9.40;6.80;;;;;;;23.11;72.66;99770.56;4845707;29;20405;-92
2022/07/22 01:59:45;;;;;;;9.18;7.03;;;;;;;23.05;73.03;99765.88;4845775;29;20030;-92
2022/07/22 02:02:11;;;;;;;8.57;7.70;;;;;;;22.96;73.41;99748.16;4844799;29;20034;-93
2022/07/22 02:04:36;;;;;;;7.60;6.90;;;;;;;23.00;73.60;99749.53;4859954;29;20041;-91
2022/07/22 02:07:02;;;;;;;7.45;6.70;;;;;;;22.93;73.79;99739.66;4844273;29;20045;-92
2022/07/22 02:09:27;;;;;;;7.72;7.00;;;;;;;22.92;73.63;99738.81;4844304;29;20048;-91
2022/07/22 02:11:53;;;;;;;8.30;6.90;;;;;;;22.94;73.94;99741.31;4844153;29;20033;-92
2022/07/22 02:14:18;;;;;;;7.43;6.45;;;;;;;22.95;74.05;99743.81;4844183;29;20045;-92
2022/07/22 02:16:43;;;;;;;8.20;7.40;;;;;;;22.95;74.20;99751.78;4859949;29;20083;-91
2022/07/22 02:19:14;;;;;;;7.80;7.00;;;;;;;22.93;74.11;99750.28;4859535;29;20041;-91
2022/07/22 02:21:40;;;;;;;8.13;7.32;;;;;;;22.82;74.62;99751.28;4857909;29;20120;-84
2022/07/22 02:24:05;;;;;;;12.05;7.88;;;;;;;22.83;74.87;99752.94;4857610;29;20129;-84
2022/07/22 02:26:31;;;;;;;7.72;6.93;;;;;;;22.88;74.84;99763.94;4857772;29;20091;-84
2022/07/22 02:28:56;;;;;;;8.63;6.88;;;;;;;22.93;74.62;99774.19;4838908;29;20049;-84
2022/07/22 02:31:22;;;;;;;7.68;6.95;;;;;;;22.94;75.05;99779.34;4839175;29;20050;-84
2022/07/22 02:33:47;;;;;;;8.35;6.93;;;;;;;22.93;75.15;99776.84;4839303;29;20083;-84
2022/07/22 02:36:13;;;;;;;8.40;7.25;;;;;;;22.94;74.94;99778.50;4825146;29;20076;-84
2022/07/22 02:38:38;;;;;;;7.78;7.07;;;;;;;22.95;74.78;99788.97;4820956;29;20081;-84
2022/07/22 02:41:04;;;;;;;8.43;7.47;;;;;;;22.96;75.03;99792.47;4820852;29;20031;-84
2022/07/22 02:43:29;;;;;;;8.82;7.90;;;;;;;22.88;74.73;99778.09;4821332;29;20077;-84
2022/07/22 02:45:55;;;;;;;8.70;7.07;;;;;;;22.87;74.88;99772.91;4827676;29;20423;-84
2022/07/22 02:48:20;;;;;;;8.55;7.47;;;;;;;22.78;75.04;99765.84;4839104;29;20050;-84
2022/07/22 02:50:46;;;;;;;8.77;7.70;;;;;;;22.83;75.09;99788.28;4823800;29;20030;-84
2022/07/22 02:53:12;;;;;;;9.80;7.40;;;;;;;22.81;75.10;99798.25;4838809;29;20481;-84
2022/07/22 02:55:38;;;;;;;9.75;7.40;;;;;;;22.79;75.74;99807.31;4838863;29;20041;-84
2022/07/22 02:58:05;;;;;;;10.32;8.23;;;;;;;22.86;75.96;99827.00;4840002;29;20030;-92
2022/07/22 03:00:30;;;;;;;9.43;7.18;;;;;;;22.83;76.00;99829.94;4854685;29;20041;-92
2022/07/22 03:02:56;;;;;;;9.23;7.78;;;;;;;22.83;76.43;99841.41;4860745;29;20386;-91
2022/07/22 03:05:21;;;;;;;8.15;7.07;;;;;;;22.79;76.39;99833.88;4844281;29;20478;-91
2022/07/22 03:07:48;;;;;;;9.00;8.10;;;;;;;22.75;76.25;99861.69;4844348;29;20033;-92
2022/07/22 03:10:13;;;;;;;9.02;8.13;;;;;;;22.74;77.30;99874.16;4860179;29;20040;-91
2022/07/22 03:12:39;;;;;;;13.05;7.70;;;;;;;22.69;81.60;99875.56;4844977;29;20037;-92
2022/07/22 03:15:05;;;;;;;10.82;8.68;;;;;;;22.56;85.48;99871.41;4846918;29;20038;-90
2022/07/22 03:17:33;;;;;;;14.43;8.68;;;;;;;22.36;88.54;99862.63;4847427;29;20041;-90
2022/07/22 03:20:04;;;;;;;9.57;8.68;;;;;;;22.27;90.60;99878.56;4847090;29;20033;-89
2022/07/22 03:22:30;;;;;;;11.85;9.32;;;;;;;22.09;92.72;99884.53;4846988;29;20037;-90
2022/07/22 03:24:55;;;;;;;13.10;9.13;;;;;;;22.00;96.65;99887.22;4846981;29;20033;-89
2022/07/22 03:27:20;;;;;;;13.88;8.68;;;;;;;21.92;95.83;99894.03;4847023;29;20029;-90
2022/07/22 03:29:46;;;;;;;11.20;9.13;;;;;;;21.83;96.39;99883.44;4847323;29;20056;-90
2022/07/22 03:32:11;;;;;;;12.35;9.50;;;;;;;21.81;98.41;99893.31;4846738;29;20033;-90
2022/07/22 03:34:36;;;;;;;15.60;9.98;;;;;;;21.75;99.82;99875.31;4847041;29;20125;-90
2022/07/22 03:37:02;;;;;;;12.93;9.68;;;;;;;21.65;100.00;99865.50;4846687;29;20053;-90
2022/07/22 03:39:28;;;;;;;13.68;9.80;;;;;;;21.67;100.00;99870.69;4847240;29;20511;-90
2022/07/22 03:41:53;;;;;;;12.93;10.73;;;;;;;21.52;100.00;99851.69;4847076;29;20037;-90
2022/07/22 03:44:18;;;;;;;13.55;9.90;;;;;;;21.49;100.00;99851.97;4846702;29;20061;-89
2022/07/22 03:46:44;;;;;;;12.57;11.18;;;;;;;21.46;100.00;99840.81;4846569;29;20033;-90
2022/07/22 03:49:09;;;;;;;14.57;10.30;;;;;;;21.32;100.00;99826.13;4846266;29;20060;-89
2022/07/22 03:51:35;;;;;;;13.88;10.75;;;;;;;21.37;100.00;99848.59;4846373;29;20089;-90
2022/07/22 03:54:00;;;;;;;15.35;9.75;;;;;;;21.34;100.00;99848.84;4846514;29;20706;-89
2022/07/22 03:56:25;;;;;;;14.88;11.77;;;;;;;21.29;100.00;99837.81;4846603;29;20037;-89
2022/07/22 03:58:51;;;;;;;15.88;11.23;;;;;;;21.18;100.00;99830.78;4846560;29;20541;-89
2022/07/22 04:01:16;;;;;;;13.10;11.32;;;;;;;21.10;100.00;99821.84;4823419;29;20050;-89
2022/07/22 04:03:41;;;;;;;12.27;10.98;;;;;;;21.07;100.00;99815.03;4823673;29;20058;-90
2022/07/22 04:06:07;;;;;;;13.05;11.65;;;;;;;21.11;100.00;99797.03;4808514;29;20049;-89
2022/07/22 04:08:32;;;;;;;13.32;11.40;;;;;;;21.10;100.00;99777.66;4808419;29;20495;-89
2022/07/22 04:10:58;;;;;;;13.07;11.35;;;;;;;21.01;100.00;99764.41;4807912;29;20423;-90
2022/07/22 04:13:23;;;;;;;14.10;10.85;;;;;;;21.15;100.00;99783.41;4823827;29;20057;-89
2022/07/22 04:15:48;;;;;;;14.15;11.20;;;;;;;21.17;100.00;99776.16;4808381;29;20107;-90
2022/07/22 04:18:17;;;;;;;12.35;9.77;;;;;;;21.18;100.00;99782.28;4823463;29;20038;-90
2022/07/22 04:20:42;;;;;;;12.85;10.35;;;;;;;21.20;100.00;99775.06;4808368;29;20118;-89
2022/07/22 04:23:08;;;;;;;11.75;9.80;;;;;;;21.23;100.00;99772.09;4808153;29;20467;-90
2022/07/22 04:25:33;;;;;;;11.80;10.68;;;;;;;21.22;100.00;99769.59;4822626;29;20034;-89
2022/07/22 04:27:59;;;;;;;11.52;10.23;;;;;;;21.24;100.00;99760.56;4808162;29;20042;-89
2022/07/22 04:30:24;;;;;;;13.32;11.35;;;;;;;21.25;100.00;99754.28;4786997;29;20075;-89
2022/07/22 04:32:49;;;;;;;13.43;10.95;;;;;;;21.37;100.00;99762.97;4813567;29;20047;-89
2022/07/22 04:35:15;;;;;;;14.98;11.35;;;;;;;21.25;100.00;99748.16;4807887;29;20042;-90
2022/07/22 04:37:40;;;;;;;12.15;10.88;;;;;;;21.32;100.00;99758.09;4807963;29;20053;-89
2022/07/22 04:40:06;;;;;;;12.38;11.13;;;;;;;21.30;100.00;99743.28;4822831;29;20054;-89
2022/07/22 04:42:31;;;;;;;11.68;10.52;;;;;;;21.52;100.00;99755.44;4807864;29;20034;-89
2022/07/22 04:44:57;;;;;;;10.88;9.88;;;;;;;21.69;100.00;99741.50;4822675;29;20602;-89
2022/07/22 04:47:22;;;;;;;13.75;10.63;;;;;;;21.96;100.00;99750.56;4807853;29;20038;-89
2022/07/22 04:49:47;;;;;;;11.90;10.20;;;;;;;22.00;100.00;99747.47;4807825;29;20064;-90
2022/07/22 04:52:13;;;;;;;14.48;10.90;;;;;;;22.41;100.00;99756.88;4807653;29;20054;-89
2022/07/22 04:54:38;;;;;;;10.95;9.95;;;;;;;22.96;100.00;99744.66;4807845;29;20574;-89
2022/07/22 04:57:04;;;;;;;12.23;10.25;;;;;;;23.39;100.00;99738.66;4807451;29;20646;-89
2022/07/22 04:59:29;;;;;;;10.85;9.75;;;;;;;23.90;100.00;99739.78;4807633;29;20045;-89
2022/07/22 05:01:54;;;;;;;10.38;9.38;;;;;;;24.67;100.00;99738.09;4834474;29;20053;-89
2022/07/22 05:04:20;;;;;;;12.48;9.70;;;;;;;26.08;93.60;99731.00;4844796;29;20026;-88
2022/07/22 05:06:45;;;;;;;10.45;9.35;;;;;;;27.45;84.44;99717.28;4861536;29;20120;-88
2022/07/22 05:09:10;;;;;;;9.77;8.70;;;;;;;28.41;78.15;99726.47;4860301;29;20083;-90
2022/07/22 05:11:36;;;;;;;13.20;8.95;;;;;;;28.36;76.43;99731.56;4845030;29;20030;-89
2022/07/22 05:14:01;;;;;;;13.45;9.63;;;;;;;28.26;76.12;99731.78;4845098;29;20093;-92
2022/07/22 05:16:27;;;;;;;11.18;9.10;;;;;;;28.23;74.91;99728.63;4845089;29;20086;-90
2022/07/22 05:18:52;;;;;;;9.77;8.77;;;;;;;28.21;74.83;99718.13;4844967;29;20025;-89
2022/07/22 05:21:17;;;;;;;9.70;8.68;;;;;;;28.46;74.97;99729.44;4844761;29;20033;-90
2022/07/22 05:23:43;;;;;;;10.63;8.60;;;;;;;28.91;71.85;99730.22;4845243;29;20618;-91
2022/07/22 05:26:09;;;;;;;9.45;8.32;;;;;;;29.62;69.89;99724.19;4844985;29;20081;-89
2022/07/22 05:28:34;;;;;;;9.52;8.18;;;;;;;29.32;68.32;99730.47;4845022;29;20025;-91
2022/07/22 05:31:00;;;;;;;9.65;8.35;;;;;;;28.94;70.10;99719.09;4845375;29;20033;-91
2022/07/22 05:33:25;;;;;;;10.10;8.98;;;;;;;28.80;70.64;99731.50;4861430;29;20104;-91
2022/07/22 05:35:51;;;;;;;11.00;8.38;;;;;;;28.13;72.92;99738.78;4844115;29;20059;-91
2022/07/22 05:38:16;;;;;;;9.93;8.38;;;;;;;27.60;75.58;99739.56;4844307;29;20053;-91
2022/07/22 05:40:42;;;;;;;9.38;8.18;;;;;;;27.67;74.87;99738.84;4844324;29;20025;-91
2022/07/22 05:43:07;;;;;;;11.85;9.05;;;;;;;28.06;74.05;99741.34;4844305;29;20029;-91
2022/07/22 05:45:33;;;;;;;10.52;8.63;;;;;;;29.22;71.91;99745.22;4844665;29;20030;-90
2022/07/22 05:47:58;;;;;;;9.35;8.45;;;;;;;30.96;64.77;99746.38;4844458;29;20064;-91
2022/07/22 05:50:24;;;;;;;9.85;8.85;;;;;;;31.67;61.40;99752.16;4844357;29;20034;-91
2022/07/22 05:52:49;;;;;;;10.30;8.75;;;;;;;31.20;62.14;99764.66;4861223;29;20038;-91
2022/07/22 05:55:15;;;;;;;9.60;7.97;;;;;;;30.77;62.01;99759.53;4844313;29;20060;-89
2022/07/22 05:57:40;;;;;;;9.07;8.18;;;;;;;30.37;63.16;99763.81;4844569;29;20036;-91
2022/07/22 06:00:06;;;;;;;11.63;8.20;;;;;;;30.41;63.44;99764.25;4859722;29;20037;-91
2022/07/22 06:02:32;;;;;;;9.93;8.40;;;;;;;30.21;63.03;99764.97;4844537;29;20033;-91
2022/07/22 06:05:00;;;;;;;10.15;8.30;;;;;;;30.03;64.89;99773.47;4844181;29;20029;-91
2022/07/22 06:07:26;;;;;;;9.55;7.93;;;;;;;29.61;66.35;99774.34;4858778;29;20089;-91
2022/07/22 06:09:51;;;;;;;10.27;9.05;;;;;;;29.26;68.23;99776.03;4843438;29;20073;-91
2022/07/22 06:12:17;;;;;;;9.55;8.60;;;;;;;29.09;68.31;99760.16;4843064;29;20045;-92
2022/07/22 06:14:42;;;;;;;9.48;8.68;;;;;;;28.96;69.97;99778.78;4843340;29;20141;-91
2022/07/22 06:17:52;;;;;;;8.68;7.78;;;;;;;29.72;67.66;99775.69;4844060;29;20049;-96
2022/07/22 06:21:28;;;;;;;9.45;8.55;;;;;;;29.23;69.88;99777.22;4752178;30;20040;-96
2022/07/22 06:25:09;;;;;;;12.38;10.07;;;;;;;29.23;70.21;99779.06;4699329;30;20065;-96
2022/07/22 06:38:12;;;;;;;10.35;9.27;;;;;;;27.64;76.03;99760.59;4701271;30;20076;-92
2022/07/22 07:06:08;;;;;;;12.70;8.68;;;;;;;37.29;43.93;99799.13;4804295;29;20087;-94
2022/07/22 07:08:33;;;;;;;11.70;8.90;;;;;;;37.70;41.35;99795.28;4788975;29;20137;-93
2022/07/22 07:10:59;;;;;;;10.85;9.48;;;;;;;37.92;40.75;99796.22;4789332;29;20197;-94
2022/07/22 07:13:24;;;;;;;10.63;9.50;;;;;;;38.24;40.06;99792.91;4785977;29;20499;-93
2022/07/22 07:15:49;;;;;;;9.43;8.32;;;;;;;38.38;40.18;99802.38;4786147;30;20070;-95
2022/07/22 07:18:15;;;;;;;10.15;8.27;;;;;;;38.52;39.16;99810.22;4786318;30;20079;-94
2022/07/22 07:20:40;;;;;;;9.48;8.38;;;;;;;38.19;38.85;99801.00;4786094;30;20070;-94
2022/07/22 07:23:06;;;;;;;8.95;8.07;;;;;;;38.35;39.05;99805.63;4785791;30;20053;-95
2022/07/22 07:25:31;;;;;;;8.27;7.30;;;;;;;38.65;38.70;99801.69;4786258;30;20027;-93
2022/07/22 07:27:57;;;;;;;11.90;8.52;;;;;;;38.82;38.38;99804.38;4795437;29;20419;-94
2022/07/22 07:30:22;;;;;;;9.93;8.88;;;;;;;38.79;38.14;99811.16;4821540;29;20415;-91
2022/07/22 07:32:48;;;;;;;10.85;8.02;;;;;;;38.60;38.00;99807.03;4821905;29;20031;-95
2022/07/22 07:35:13;;;;;;;8.90;8.00;;;;;;;38.84;37.06;99805.75;4806614;29;20042;-93
2022/07/22 07:37:39;;;;;;;9.07;8.07;;;;;;;39.06;36.83;99807.63;4806811;29;20030;-95
2022/07/22 07:40:05;;;;;;;13.40;9.57;;;;;;;39.07;36.52;99812.03;4821724;29;20084;-93
2022/07/22 07:42:31;;;;;;;9.27;8.30;;;;;;;38.51;37.97;99803.09;4835655;29;20109;-89
2022/07/22 07:45:00;;;;;;;9.13;8.23;;;;;;;38.66;37.74;99800.59;4839688;29;20475;-91
2022/07/22 07:47:25;;;;;;;11.45;9.77;;;;;;;38.22;38.21;99797.75;4839551;29;20121;-88
2022/07/22 07:49:51;;;;;;;12.02;9.88;;;;;;;39.60;36.04;99805.78;4840887;29;20070;-85
2022/07/22 07:52:18;;;;;;;8.88;7.65;;;;;;;42.53;30.69;99798.41;4840941;29;20029;-85
2022/07/22 07:54:44;;;;;;;10.77;7.57;;;;;;;45.05;27.15;99797.78;4839591;29;20034;-85
2022/07/22 07:57:10;;;;;;;10.10;9.10;;;;;;;47.20;25.21;99803.00;4840571;29;20154;-85
2022/07/22 07:59:40;;;;;;;8.65;7.72;;;;;;;48.63;23.25;99792.97;4840966;29;20109;-84
2022/07/22 08:02:06;;;;;;;9.07;8.23;;;;;;;49.12;22.60;99794.56;4843727;29;20065;-84
2022/07/22 08:04:32;;;;;;;10.95;7.53;;;;;;;50.43;21.87;99812.56;4844381;29;20048;-84
2022/07/22 08:06:58;;;;;;;7.68;6.95;;;;;;;51.31;20.29;99801.78;4844355;29;20117;-84
2022/07/22 08:09:24;;;;;;;9.85;8.85;;;;;;;51.53;19.56;99797.78;4843908;29;20141;-84
2022/07/22 08:11:50;;;;;;;13.15;7.22;;;;;;;51.31;19.68;99797.03;4842044;29;20038;-84
2022/07/22 08:14:16;;;;;;;8.60;7.70;;;;;;;52.16;19.05;99803.19;4843193;29;20030;-82
2022/07/22 08:16:42;;;;;;;8.18;7.43;;;;;;;52.50;18.79;99801.94;4843546;29;20490;-83
2022/07/22 08:19:08;;;;;;;10.15;7.68;;;;;;;52.47;18.31;99772.88;4843449;29;20034;-84
2022/07/22 08:21:34;;;;;;;8.13;7.32;;;;;;;52.89;17.83;99807.94;4843541;29;20034;-82
2022/07/22 08:23:59;;;;;;;7.90;7.18;;;;;;;50.87;19.56;99795.75;4843696;29;20026;-82
2022/07/22 08:26:25;;;;;;;10.50;7.60;;;;;;;46.78;22.95;99787.66;4843328;29;20112;-83
2022/07/22 08:28:51;;;;;;;7.00;6.38;;;;;;;43.43;26.17;99791.94;4843287;29;20530;-82
2022/07/22 08:31:16;;;;;;;8.73;7.72;;;;;;;41.24;28.79;99793.19;4843324;29;20041;-81
2022/07/22 08:33:41;;;;;;;8.70;7.72;;;;;;;39.53;31.31;99791.56;4841933;29;20030;-83
2022/07/22 08:36:08;;;;;;;9.15;7.72;;;;;;;38.30;32.41;99788.34;4843295;29;20029;-81
2022/07/22 08:38:33;;;;;;;8.93;8.13;;;;;;;37.28;33.87;99786.63;4843364;29;20488;-82
2022/07/22 08:41:02;;;;;;;8.88;7.97;;;;;;;35.97;37.28;99787.84;4843391;29;20037;-82
2022/07/22 08:43:28;;;;;;;9.70;8.80;;;;;;;35.45;39.03;99781.34;4842776;29;20030;-83
2022/07/22 08:45:58;;;;;;;10.05;9.00;;;;;;;34.92;39.92;99790.94;4843262;29;20054;-87
2022/07/22 08:48:25;;;;;;;11.13;8.73;;;;;;;34.60;40.88;99787.59;4842615;29;20030;-83
2022/07/22 08:50:51;;;;;;;11.30;8.93;;;;;;;34.28;41.04;99786.03;4842639;29;20065;-82
2022/07/22 08:53:18;;;;;;;10.40;9.18;;;;;;;33.62;42.08;99782.78;4841271;29;20091;-81
2022/07/22 08:55:45;;;;;;;13.82;9.93;;;;;;;32.61;43.55;99788.81;4843020;29;20077;-82
2022/07/22 08:58:11;;;;;;;11.60;10.40;;;;;;;32.00;45.25;99781.00;4843246;29;20036;-83
2022/07/22 09:00:38;;;;;;;10.10;9.20;;;;;;;32.10;45.88;99775.19;4843154;29;20045;-83
2022/07/22 09:03:27;;;;;;;10.80;9.75;;;;;;;32.32;45.19;99779.31;4842921;29;20539;-82
2022/07/22 09:05:54;;;;;;;10.13;9.07;;;;;;;32.40;45.81;99791.75;4842902;29;20040;-82
2022/07/22 09:08:20;;;;;;;10.13;9.10;;;;;;;32.34;44.97;99785.31;4856557;29;20033;-83
2022/07/22 09:10:46;;;;;;;10.60;9.50;;;;;;;32.41;46.09;99783.47;4827447;29;20037;-82
2022/07/22 09:13:13;;;;;;;9.80;8.90;;;;;;;32.52;45.70;99781.97;4842055;29;20029;-82
2022/07/22 09:15:47;;;;;;;11.45;9.18;;;;;;;32.33;44.87;99769.38;4842741;29;20041;-83
2022/07/22 09:18:12;;;;;;;10.15;8.75;;;;;;;32.34;44.41;99774.53;4842459;29;20112;-82
2022/07/22 09:20:38;;;;;;;10.88;9.88;;;;;;;32.18;45.43;99759.63;4842916;29;20125;-82
2022/07/22 09:23:17;;;;;;;12.43;8.82;;;;;;;32.30;47.17;99779.50;4842463;29;20022;-81
2022/07/22 09:25:43;;;;;;;10.40;9.47;;;;;;;32.27;45.64;99771.84;4842400;29;20479;-81
2022/07/22 09:28:14;;;;;;;11.40;10.27;;;;;;;32.12;45.36;99778.50;4842435;29;20275;-82
2022/07/22 09:30:50;;;;;;;11.65;9.68;;;;;;;32.11;45.42;99769.59;4842308;29;20026;-81
2022/07/22 09:33:17;;;;;;;10.43;9.38;;;;;;;32.27;45.13;99777.22;4841788;29;20069;-81
2022/07/22 09:35:45;;;;;;;9.25;8.15;;;;;;;32.38;45.22;99766.84;4842356;29;20038;-82
2022/07/22 09:38:13;;;;;;;9.05;8.18;;;;;;;32.37;45.14;99762.50;4825698;29;20045;-81
2022/07/22 09:40:45;;;;;;;10.02;9.05;;;;;;;32.26;44.02;99751.31;4842181;29;20041;-82
2022/07/22 09:43:17;;;;;;;8.60;7.85;;;;;;;32.26;44.29;99766.66;4841782;29;20057;-83
2022/07/22 09:45:56;;;;;;;9.52;8.65;;;;;;;32.16;44.94;99753.63;4842025;29;20121;-83
2022/07/22 09:48:22;;;;;;;9.23;7.82;;;;;;;32.09;44.75;99750.09;4842143;29;20030;-81
2022/07/22 09:50:51;;;;;;;13.35;10.00;;;;;;;31.99;44.12;99769.38;4842103;29;20332;-81
2022/07/22 09:53:22;;;;;;;8.65;7.85;;;;;;;31.63;45.16;99753.59;4841124;29;20117;-82
2022/07/22 09:55:49;;;;;;;10.27;9.20;;;;;;;31.37;45.87;99751.69;4842060;29;20440;-82
2022/07/22 09:58:15;;;;;;;9.95;8.95;;;;;;;30.62;46.21;99747.22;4841672;29;20048;-81
2022/07/22 10:00:42;;;;;;;10.32;8.52;;;;;;;30.64;46.37;99750.56;4842164;29;20030;-82
2022/07/22 10:03:13;;;;;;;10.55;9.52;;;;;;;30.62;47.26;99760.66;4841998;29;20086;-82
2022/07/22 10:05:41;;;;;;;9.82;8.90;;;;;;;30.61;47.80;99754.47;4841962;29;20065;-82
2022/07/22 10:08:08;;;;;;;8.95;8.05;;;;;;;30.86;46.75;99762.88;4842256;29;20030;-84
2022/07/22 10:10:36;;;;;;;11.05;8.18;;;;;;;31.19;45.67;99754.94;4841452;29;20146;-83
2022/07/22 10:13:05;;;;;;;8.90;8.00;;;;;;;31.33;44.44;99741.53;4841441;29;20041;-81
2022/07/22 10:15:32;;;;;;;7.75;6.95;;;;;;;31.38;42.79;99739.88;4841259;29;20403;-80
2022/07/22 10:18:03;;;;;;;8.85;8.05;;;;;;;31.39;43.03;99740.72;4841819;29;20279;-82
2022/07/22 10:20:29;;;;;;;8.57;7.68;;;;;;;31.52;44.04;99744.28;4841587;29;20030;-82
2022/07/22 10:23:21;;;;;;;8.25;7.00;;;;;;;31.63;42.74;99739.31;4839963;29;20053;-82
2022/07/22 10:26:01;;;;;;;9.30;7.10;;;;;;;31.66;41.12;99730.81;4767296;30;20040;-82
2022/07/22 10:28:29;;;;;;;;;;;;;;;32.03;41.61;99749.06;4752282;30;20040;-81
2022/07/22 10:31:15;;;;;;;7.40;6.50;;;;;;;32.33;41.28;99745.09;4766598;30;19917;-82
2022/07/22 10:33:42;;;;;;;8.35;6.85;;;;;;;32.42;41.34;99728.50;4766955;30;20044;-82
2022/07/22 10:36:09;;;;;;;8.55;5.93;;;;;;;32.43;40.69;99738.25;4766773;30;20044;-83
2022/07/22 10:38:34;;;;;;;6.75;6.13;;;;;;;32.33;38.68;99716.28;4766572;30;20524;-81
2022/07/22 10:41:03;;;;;;;7.60;5.40;;;;;;;32.45;39.98;99738.88;4766697;30;20088;-83
2022/07/22 10:43:48;;;;;;;6.25;5.50;;;;;;;32.69;40.17;99728.41;4766054;30;20640;-83
2022/07/22 10:46:54;;;;;;;6.75;6.00;;;;;;;32.84;39.64;99736.25;4766449;30;20083;-83
2022/07/22 10:49:23;;;;;;;7.18;6.00;;;;;;;32.73;36.81;99697.28;4784071;30;20050;-83
2022/07/22 10:52:07;;;;;;;6.28;5.68;;;;;;;33.12;37.01;99735.91;4784350;30;20395;-82
2022/07/22 10:54:33;;;;;;;6.22;5.65;;;;;;;33.20;37.13;99731.09;4783952;30;20122;-82
2022/07/22 10:57:03;;;;;;;6.30;5.80;;;;;;;33.37;36.23;99733.28;4783885;30;20114;-83
2022/07/22 10:59:29;;;;;;;5.78;5.05;;;;;;;33.48;35.60;99730.75;4783994;30;20035;-82
2022/07/22 11:01:55;;;;;;;5.70;5.20;;;;;;;33.50;35.19;99723.25;4796179;29;20148;-82
2022/07/22 11:04:23;;;;;;;7.40;5.63;;;;;;;33.57;34.47;99720.50;4840726;29;20067;-83
2022/07/22 11:06:50;;;;;;;6.82;5.60;;;;;;;33.51;33.48;99722.22;4840876;29;20037;-82
2022/07/22 11:09:18;;;;;;;7.45;4.75;;;;;;;33.37;34.41;99707.09;4840259;29;20030;-82
2022/07/22 11:11:50;;;;;;;8.57;5.10;;;;;;;33.53;32.97;99712.00;4841365;29;20082;-82
2022/07/22 11:14:21;;;;;;;9.85;5.13;;;;;;;33.60;33.00;99711.97;4841256;29;20026;-83
2022/07/22 11:16:49;;;;;;;5.30;4.80;;;;;;;33.71;34.25;99713.09;4841357;29;20475;-82
2022/07/22 11:19:24;;;;;;;5.45;4.53;;;;;;;33.73;33.26;99716.44;4841194;29;20025;-82
2022/07/22 11:21:52;;;;;;;8.02;4.88;;;;;;;33.75;33.54;99715.16;4841363;29;20491;-82
2022/07/22 11:24:19;;;;;;;5.45;4.90;;;;;;;33.84;32.65;99712.16;4841011;29;20026;-82
2022/07/22 11:26:51;;;;;;;5.70;4.82;;;;;;;33.84;32.41;99702.22;4840909;29;20106;-82
2022/07/22 11:29:39;;;;;;;5.53;5.03;;;;;;;33.77;33.63;99710.34;4840769;29;20038;-82
2022/07/22 11:32:07;;;;;;;6.20;5.60;;;;;;;33.68;32.68;99710.88;4841072;29;20048;-82
2022/07/22 11:34:32;;;;;;;5.15;4.70;;;;;;;33.69;32.98;99707.94;4825256;29;20444;-82
2022/07/22 11:36:58;;;;;;;7.47;5.25;;;;;;;33.38;31.97;99700.69;4844821;29;20038;-82
2022/07/22 11:39:26;;;;;;;7.00;4.95;;;;;;;33.34;35.10;99691.38;4827836;29;20121;-82
2022/07/22 11:41:53;;;;;;;4.97;4.45;;;;;;;33.28;32.73;99697.63;4844584;29;20026;-81
2022/07/22 11:44:27;;;;;;;5.82;5.40;;;;;;;33.14;34.14;99690.66;4844348;29;20041;-82
2022/07/22 11:46:53;;;;;;;7.53;5.30;;;;;;;33.24;33.64;99702.63;4838109;29;20042;-82
2022/07/22 11:49:21;;;;;;;5.57;5.05;;;;;;;33.28;35.00;99690.34;4844380;29;20037;-82
2022/07/22 11:51:47;;;;;;;5.93;5.22;;;;;;;33.41;33.68;99680.50;4844756;29;20090;-82
2022/07/22 11:54:14;;;;;;;5.63;5.13;;;;;;;33.65;34.13;99689.69;4844543;29;20034;-81
2022/07/22 11:56:39;;;;;;;4.90;4.50;;;;;;;33.75;33.61;99696.25;4843993;29;20474;-81
2022/07/22 11:59:06;;;;;;;6.78;5.28;;;;;;;33.85;33.78;99684.13;4827752;29;20034;-81
2022/07/22 12:01:34;;;;;;;8.25;5.13;;;;;;;33.74;33.69;99697.28;4844099;29;20045;-81
2022/07/22 12:04:08;;;;;;;5.45;4.95;;;;;;;33.63;33.42;99698.03;4843183;29;20042;-81
2022/07/22 12:06:38;;;;;;;5.07;4.68;;;;;;;33.52;32.01;99688.75;4844048;29;20025;-81